sensor_id;sensor_type;location;lat;lon;timestamp;pressure;altitude;pressure_sealevel;temperature;humidity
19150;BME280;9707;49.158;8.632;2022-12-18T00:00:43;101673.00;;;12.22;23.71
19150;BME280;9707;49.158;8.632;2022-12-18T00:03:09;101673.06;;;12.18;23.56
19150;BME280;9707;49.158;8.632;2022-12-18T00:05:34;101675.84;;;12.16;23.54
19150;BME280;9707;49.158;8.632;2022-12-18T00:08:00;101677.66;;;12.13;23.78
19150;BME280;9707;49.158;8.632;2022-12-18T00:10:25;101677.72;;;12.12;23.63
19150;BME280;9707;49.158;8.632;2022-12-18T00:12:51;101678.66;;;12.10;23.64
19150;BME280;9707;49.158;8.632;2022-12-18T00:15:17;101675.13;;;12.07;23.54
19150;BME280;9707;49.158;8.632;2022-12-18T00:17:42;101677.91;;;12.05;23.59
19150;BME280;9707;49.158;8.632;2022-12-18T00:20:08;101681.47;;;12.03;23.38
19150;BME280;9707;49.158;8.632;2022-12-18T00:22:33;101679.81;;;12.00;23.45
19150;BME280;9707;49.158;8.632;2022-12-18T00:24:58;101682.50;;;11.98;23.61
19150;BME280;9707;49.158;8.632;2022-12-18T00:27:24;101677.22;;;11.95;23.71
19150;BME280;9707;49.158;8.632;2022-12-18T00:29:49;101678.19;;;11.93;23.72
19150;BME280;9707;49.158;8.632;2022-12-18T00:32:15;101675.53;;;11.91;23.26
19150;BME280;9707;49.158;8.632;2022-12-18T00:34:40;101687.16;;;11.88;23.28
19150;BME280;9707;49.158;8.632;2022-12-18T00:37:05;101692.56;;;11.87;24.03
19150;BME280;9707;49.158;8.632;2022-12-18T00:39:31;101690.78;;;11.86;24.19
19150;BME280;9707;49.158;8.632;2022-12-18T00:41:56;101697.03;;;11.87;24.50
19150;BME280;9707;49.158;8.632;2022-12-18T00:44:40;101696.09;;;11.88;24.57
19150;BME280;9707;49.158;8.632;2022-12-18T00:47:05;101697.81;;;11.90;24.48
19150;BME280;9707;49.158;8.632;2022-12-18T00:49:30;101693.28;;;11.93;24.42
19150;BME280;9707;49.158;8.632;2022-12-18T00:51:55;101685.25;;;11.95;24.16
19150;BME280;9707;49.158;8.632;2022-12-18T00:54:21;101682.56;;;11.95;23.35
19150;BME280;9707;49.158;8.632;2022-12-18T00:56:46;101688.84;;;11.93;23.08
19150;BME280;9707;49.158;8.632;2022-12-18T00:59:11;101686.28;;;11.90;23.30
19150;BME280;9707;49.158;8.632;2022-12-18T01:01:37;101705.94;;;11.86;23.40
19150;BME280;9707;49.158;8.632;2022-12-18T01:04:02;101712.25;;;11.83;23.89
19150;BME280;9707;49.158;8.632;2022-12-18T01:06:28;101698.00;;;11.82;24.54
19150;BME280;9707;49.158;8.632;2022-12-18T01:08:54;101687.25;;;11.86;24.78
19150;BME280;9707;49.158;8.632;2022-12-18T01:11:20;101675.66;;;11.87;24.83
19150;BME280;9707;49.158;8.632;2022-12-18T01:13:46;101685.38;;;11.91;24.33
19150;BME280;9707;49.158;8.632;2022-12-18T01:16:14;101685.38;;;11.91;24.11
19150;BME280;9707;49.158;8.632;2022-12-18T01:18:40;101682.72;;;11.89;23.84
19150;BME280;9707;49.158;8.632;2022-12-18T01:21:10;101683.66;;;11.87;23.63
19150;BME280;9707;49.158;8.632;2022-12-18T01:23:36;101694.41;;;11.83;23.59
19150;BME280;9707;49.158;8.632;2022-12-18T01:26:11;101687.41;;;11.80;23.38
19150;BME280;9707;49.158;8.632;2022-12-18T01:28:38;101687.41;;;11.80;23.79
19150;BME280;9707;49.158;8.632;2022-12-18T01:31:19;101681.97;;;11.82;24.62
19150;BME280;9707;49.158;8.632;2022-12-18T01:33:45;101681.97;;;11.82;24.93
19150;BME280;9707;49.158;8.632;2022-12-18T01:36:37;101689.03;;;11.85;24.57
19150;BME280;9707;49.158;8.632;2022-12-18T01:39:03;101687.16;;;11.88;24.26
19150;BME280;9707;49.158;8.632;2022-12-18T01:41:30;101683.63;;;11.90;24.30
19150;BME280;9707;49.158;8.632;2022-12-18T01:44:55;101692.56;;;11.87;23.93
19150;BME280;9707;49.158;8.632;2022-12-18T01:49:48;101683.66;;;11.87;24.78
19150;BME280;9707;49.158;8.632;2022-12-18T01:52:14;101674.75;;;11.88;24.99
19150;BME280;9707;49.158;8.632;2022-12-18T01:54:40;101676.44;;;11.92;24.66
19150;BME280;9707;49.158;8.632;2022-12-18T01:57:06;101688.84;;;11.93;25.01
19150;BME280;9707;49.158;8.632;2022-12-18T01:59:32;101695.94;;;11.93;24.33
19150;BME280;9707;49.158;8.632;2022-12-18T02:01:59;101694.13;;;11.96;24.80
19150;BME280;9707;49.158;8.632;2022-12-18T02:04:26;101687.00;;;11.96;24.46
19150;BME280;9707;49.158;8.632;2022-12-18T02:07:03;101701.22;;;11.97;24.17
19150;BME280;9707;49.158;8.632;2022-12-18T02:09:36;101701.22;;;11.97;24.25
19150;BME280;9707;49.158;8.632;2022-12-18T02:12:17;101686.97;;;11.98;24.56
19150;BME280;9707;49.158;8.632;2022-12-18T02:17:22;101682.50;;;11.98;24.68
19150;BME280;9707;49.158;8.632;2022-12-18T02:22:43;101680.69;;;11.98;24.58
19150;BME280;9707;49.158;8.632;2022-12-18T02:25:26;101688.72;;;11.98;24.48
19150;BME280;9707;49.158;8.632;2022-12-18T02:27:56;101687.84;;;11.98;24.46
19150;BME280;9707;49.158;8.632;2022-12-18T02:30:26;101690.50;;;12.00;24.52
19150;BME280;9707;49.158;8.632;2022-12-18T02:32:54;101694.91;;;12.01;24.78
19150;BME280;9707;49.158;8.632;2022-12-18T02:35:23;101700.22;;;12.02;24.25
19150;BME280;9707;49.158;8.632;2022-12-18T02:37:50;101695.75;;;12.02;24.51
19150;BME280;9707;49.158;8.632;2022-12-18T02:40:19;101689.47;;;12.03;24.40
19150;BME280;9707;49.158;8.632;2022-12-18T02:42:46;101688.59;;;12.05;24.90
19150;BME280;9707;49.158;8.632;2022-12-18T02:45:11;101683.19;;;12.06;25.14
19150;BME280;9707;49.158;8.632;2022-12-18T02:47:39;101685.84;;;12.06;24.21
19150;BME280;9707;49.158;8.632;2022-12-18T02:56:26;101706.34;;;12.06;24.65
19150;BME280;9707;49.158;8.632;2022-12-18T03:04:38;101693.94;;;12.05;25.11
19150;BME280;9707;49.158;8.632;2022-12-18T03:07:11;101701.03;;;12.06;24.94
19150;BME280;9707;49.158;8.632;2022-12-18T03:09:43;101683.25;;;12.05;24.95
19150;BME280;9707;49.158;8.632;2022-12-18T03:12:16;101692.09;;;12.07;25.31
19150;BME280;9707;49.158;8.632;2022-12-18T03:15:06;101695.66;;;12.07;24.87
19150;BME280;9707;49.158;8.632;2022-12-18T03:17:33;101677.81;;;12.07;24.88
19150;BME280;9707;49.158;8.632;2022-12-18T03:20:04;101678.69;;;12.08;24.87
19150;BME280;9707;49.158;8.632;2022-12-18T03:22:32;101684.00;;;12.10;25.34
19150;BME280;9707;49.158;8.632;2022-12-18T03:25:00;101680.41;;;12.11;25.38
19150;BME280;9707;49.158;8.632;2022-12-18T03:27:28;101697.28;;;12.13;25.38
19150;BME280;9707;49.158;8.632;2022-12-18T03:30:13;101701.75;;;12.12;25.17
19150;BME280;9707;49.158;8.632;2022-12-18T03:32:44;101704.38;;;12.13;25.70
19150;BME280;9707;49.158;8.632;2022-12-18T03:35:13;101701.69;;;12.13;26.07
19150;BME280;9707;49.158;8.632;2022-12-18T03:37:39;101690.91;;;12.18;25.93
19150;BME280;9707;49.158;8.632;2022-12-18T03:40:05;101675.75;;;12.18;25.83
19150;BME280;9707;49.158;8.632;2022-12-18T03:42:45;101682.78;;;12.23;27.10
19150;BME280;9707;49.158;8.632;2022-12-18T03:48:12;101679.91;;;12.30;27.43
19150;BME280;9707;49.158;8.632;2022-12-18T03:50:47;101666.34;;;12.38;28.56
19150;BME280;9707;49.158;8.632;2022-12-18T03:53:38;101669.75;;;12.44;28.46
19150;BME280;9707;49.158;8.632;2022-12-18T03:56:07;101682.06;;;12.49;27.50
19150;BME280;9707;49.158;8.632;2022-12-18T03:58:35;101676.78;;;12.48;26.57
19150;BME280;9707;49.158;8.632;2022-12-18T04:01:05;101680.34;;;12.47;26.15
19150;BME280;9707;49.158;8.632;2022-12-18T04:03:32;101678.59;;;12.46;26.21
19150;BME280;9707;49.158;8.632;2022-12-18T04:06:00;101682.22;;;12.43;26.04
19150;BME280;9707;49.158;8.632;2022-12-18T04:08:26;101681.38;;;12.43;26.26
19150;BME280;9707;49.158;8.632;2022-12-18T04:10:52;101677.84;;;12.41;26.33
19150;BME280;9707;49.158;8.632;2022-12-18T04:13:27;101681.44;;;12.40;26.02
19150;BME280;9707;49.158;8.632;2022-12-18T04:15:54;101676.13;;;12.38;25.78
19150;BME280;9707;49.158;8.632;2022-12-18T04:18:19;101677.03;;;12.38;25.95
19150;BME280;9707;49.158;8.632;2022-12-18T04:20:45;101669.94;;;12.37;25.78
19150;BME280;9707;49.158;8.632;2022-12-18T04:23:10;101669.94;;;12.37;26.20
19150;BME280;9707;49.158;8.632;2022-12-18T04:25:35;101665.41;;;12.40;27.86
19150;BME280;9707;49.158;8.632;2022-12-18T04:28:00;101657.31;;;12.43;26.96
19150;BME280;9707;49.158;8.632;2022-12-18T04:30:26;101662.59;;;12.44;26.90
19150;BME280;9707;49.158;8.632;2022-12-18T04:32:51;101666.16;;;12.45;26.31
19150;BME280;9707;49.158;8.632;2022-12-18T04:35:17;101660.84;;;12.43;26.06
19150;BME280;9707;49.158;8.632;2022-12-18T04:37:43;101659.09;;;12.43;26.14
19150;BME280;9707;49.158;8.632;2022-12-18T04:40:08;101653.75;;;12.43;26.23
19150;BME280;9707;49.158;8.632;2022-12-18T04:42:34;101661.75;;;12.43;26.15
19150;BME280;9707;49.158;8.632;2022-12-18T04:44:59;101657.34;;;12.42;26.68
19150;BME280;9707;49.158;8.632;2022-12-18T04:47:24;101652.91;;;12.42;26.39
19150;BME280;9707;49.158;8.632;2022-12-18T04:49:50;101652.91;;;12.42;26.18
19150;BME280;9707;49.158;8.632;2022-12-18T04:52:15;101661.75;;;12.43;26.66
19150;BME280;9707;49.158;8.632;2022-12-18T04:54:40;101660.91;;;12.42;26.55
19150;BME280;9707;49.158;8.632;2022-12-18T04:57:05;101654.63;;;12.43;26.77
19150;BME280;9707;49.158;8.632;2022-12-18T04:59:31;101647.41;;;12.47;28.31
19150;BME280;9707;49.158;8.632;2022-12-18T05:01:56;101642.84;;;12.50;27.76
19150;BME280;9707;49.158;8.632;2022-12-18T05:04:21;101651.66;;;12.53;27.98
19150;BME280;9707;49.158;8.632;2022-12-18T05:06:46;101664.94;;;12.58;28.42
19150;BME280;9707;49.158;8.632;2022-12-18T05:09:12;101658.63;;;12.61;29.04
19150;BME280;9707;49.158;8.632;2022-12-18T05:11:37;101658.44;;;12.67;29.61
19150;BME280;9707;49.158;8.632;2022-12-18T05:14:03;101662.72;;;12.72;30.10
19150;BME280;9707;49.158;8.632;2022-12-18T05:16:28;101673.28;;;12.78;29.63
19150;BME280;9707;49.158;8.632;2022-12-18T05:18:53;101668.69;;;12.83;29.86
19150;BME280;9707;49.158;8.632;2022-12-18T05:21:18;101670.28;;;12.88;30.16
19150;BME280;9707;49.158;8.632;2022-12-18T05:23:44;101666.63;;;12.93;30.42
19150;BME280;9707;49.158;8.632;2022-12-18T05:26:14;101674.53;;;12.97;30.24
19150;BME280;9707;49.158;8.632;2022-12-18T05:28:40;101680.69;;;13.01;30.64
19150;BME280;9707;49.158;8.632;2022-12-18T05:31:06;101684.16;;;13.04;30.69
19150;BME280;9707;49.158;8.632;2022-12-18T05:33:33;101684.94;;;13.08;31.22
19150;BME280;9707;49.158;8.632;2022-12-18T05:36:00;101683.06;;;13.11;30.76
19150;BME280;9707;49.158;8.632;2022-12-18T05:38:26;101671.38;;;13.14;30.83
19150;BME280;9707;49.158;8.632;2022-12-18T05:40:52;101664.13;;;13.17;31.17
19150;BME280;9707;49.158;8.632;2022-12-18T05:43:19;101665.81;;;13.21;30.83
19150;BME280;9707;49.158;8.632;2022-12-18T05:45:45;101665.78;;;13.23;31.33
19150;BME280;9707;49.158;8.632;2022-12-18T05:48:10;101659.47;;;13.25;31.63
19150;BME280;9707;49.158;8.632;2022-12-18T05:50:37;101659.41;;;13.27;31.09
19150;BME280;9707;49.158;8.632;2022-12-18T05:53:03;101661.16;;;13.28;31.52
19150;BME280;9707;49.158;8.632;2022-12-18T05:55:33;101651.28;;;13.30;31.55
19150;BME280;9707;49.158;8.632;2022-12-18T05:57:58;101649.38;;;13.33;31.80
19150;BME280;9707;49.158;8.632;2022-12-18T06:00:25;101640.34;;;13.37;31.82
19150;BME280;9707;49.158;8.632;2022-12-18T06:02:50;101645.66;;;13.39;31.78
19150;BME280;9707;49.158;8.632;2022-12-18T06:05:16;101636.63;;;13.43;32.12
19150;BME280;9707;49.158;8.632;2022-12-18T06:07:41;101638.31;;;13.45;32.06
19150;BME280;9707;49.158;8.632;2022-12-18T06:10:07;101648.09;;;13.46;31.06
19150;BME280;9707;49.158;8.632;2022-12-18T06:12:32;101656.16;;;13.45;30.55
19150;BME280;9707;49.158;8.632;2022-12-18T06:14:59;101670.47;;;13.44;31.69
19150;BME280;9707;49.158;8.632;2022-12-18T06:17:29;101675.75;;;13.47;31.99
19150;BME280;9707;49.158;8.632;2022-12-18T06:19:54;101682.84;;;13.48;31.77
19150;BME280;9707;49.158;8.632;2022-12-18T06:22:20;101692.56;;;13.52;32.35
19150;BME280;9707;49.158;8.632;2022-12-18T06:24:45;101697.78;;;13.55;32.25
19150;BME280;9707;49.158;8.632;2022-12-18T06:27:10;101696.81;;;13.57;32.41
19150;BME280;9707;49.158;8.632;2022-12-18T06:29:36;101702.97;;;13.61;32.12
19150;BME280;9707;49.158;8.632;2022-12-18T06:32:01;101704.66;;;13.63;32.43
19150;BME280;9707;49.158;8.632;2022-12-18T06:34:26;101701.94;;;13.65;33.11
19150;BME280;9707;49.158;8.632;2022-12-18T06:36:51;101711.72;;;13.66;32.57
19150;BME280;9707;49.158;8.632;2022-12-18T06:39:17;101713.44;;;13.68;32.46
19150;BME280;9707;49.158;8.632;2022-12-18T06:41:42;101710.75;;;13.68;32.69
19150;BME280;9707;49.158;8.632;2022-12-18T06:44:07;101708.97;;;13.69;32.54
19150;BME280;9707;49.158;8.632;2022-12-18T06:46:33;101703.63;;;13.69;32.92
19150;BME280;9707;49.158;8.632;2022-12-18T06:48:58;101705.38;;;13.70;32.78
19150;BME280;9707;49.158;8.632;2022-12-18T06:51:24;101716.97;;;13.70;32.99
19150;BME280;9707;49.158;8.632;2022-12-18T06:53:50;101726.72;;;13.73;32.61
19150;BME280;9707;49.158;8.632;2022-12-18T06:56:15;101724.88;;;13.73;32.01
19150;BME280;9707;49.158;8.632;2022-12-18T06:58:41;101724.84;;;13.75;32.72
19150;BME280;9707;49.158;8.632;2022-12-18T07:01:09;101721.25;;;13.76;32.83
19150;BME280;9707;49.158;8.632;2022-12-18T07:03:35;101724.75;;;13.78;33.03
19150;BME280;9707;49.158;8.632;2022-12-18T07:06:01;101722.91;;;13.80;32.97
19150;BME280;9707;49.158;8.632;2022-12-18T07:08:26;101728.25;;;13.80;32.50
19150;BME280;9707;49.158;8.632;2022-12-18T07:10:51;101731.81;;;13.80;32.37
19150;BME280;9707;49.158;8.632;2022-12-18T07:13:19;101730.94;;;13.80;32.12
19150;BME280;9707;49.158;8.632;2022-12-18T07:15:44;101731.88;;;13.79;33.08
19150;BME280;9707;49.158;8.632;2022-12-18T07:18:10;101737.19;;;13.80;32.76
19150;BME280;9707;49.158;8.632;2022-12-18T07:20:35;101733.66;;;13.78;30.56
19150;BME280;9707;49.158;8.632;2022-12-18T07:23:04;101740.06;;;13.74;29.09
19150;BME280;9707;49.158;8.632;2022-12-18T07:25:33;101737.50;;;13.70;29.46
19150;BME280;9707;49.158;8.632;2022-12-18T07:27:58;101738.56;;;13.64;29.19
19150;BME280;9707;49.158;8.632;2022-12-18T07:30:24;101745.75;;;13.62;29.76
19150;BME280;9707;49.158;8.632;2022-12-18T07:32:49;101753.00;;;13.59;28.45
19150;BME280;9707;49.158;8.632;2022-12-18T07:35:14;101761.22;;;13.53;27.74
19150;BME280;9707;49.158;8.632;2022-12-18T07:37:39;101763.22;;;13.45;27.16
19150;BME280;9707;49.158;8.632;2022-12-18T07:40:05;101766.09;;;13.39;26.80
19150;BME280;9707;49.158;8.632;2022-12-18T07:42:31;101769.81;;;13.33;26.87
19150;BME280;9707;49.158;8.632;2022-12-18T07:45:00;101763.78;;;13.27;26.70
19150;BME280;9707;49.158;8.632;2022-12-18T07:47:26;101776.41;;;13.22;26.56
19150;BME280;9707;49.158;8.632;2022-12-18T07:49:51;101775.66;;;13.17;26.38
19150;BME280;9707;49.158;8.632;2022-12-18T07:52:17;101782.91;;;13.13;26.36
19150;BME280;9707;49.158;8.632;2022-12-18T07:54:42;101776.72;;;13.10;26.53
19150;BME280;9707;49.158;8.632;2022-12-18T07:57:08;101781.28;;;13.06;27.43
19150;BME280;9707;49.158;8.632;2022-12-18T07:59:34;101784.81;;;13.08;28.39
19150;BME280;9707;49.158;8.632;2022-12-18T08:01:59;101790.97;;;13.12;27.91
19150;BME280;9707;49.158;8.632;2022-12-18T08:04:25;101788.28;;;13.12;28.91
19150;BME280;9707;49.158;8.632;2022-12-18T08:06:50;101792.72;;;13.13;28.36
19150;BME280;9707;49.158;8.632;2022-12-18T08:09:15;101796.19;;;13.15;28.20
19150;BME280;9707;49.158;8.632;2022-12-18T08:11:41;101786.47;;;13.12;27.43
19150;BME280;9707;49.158;8.632;2022-12-18T08:14:06;101791.81;;;13.12;27.66
19150;BME280;9707;49.158;8.632;2022-12-18T08:16:31;101789.22;;;13.11;27.12
19150;BME280;9707;49.158;8.632;2022-12-18T08:18:57;101791.88;;;13.11;27.25
19150;BME280;9707;49.158;8.632;2022-12-18T08:21:25;101791.91;;;13.09;26.57
19150;BME280;9707;49.158;8.632;2022-12-18T08:23:53;101791.13;;;13.06;26.54
19150;BME280;9707;49.158;8.632;2022-12-18T08:26:19;101788.44;;;13.06;27.33
19150;BME280;9707;49.158;8.632;2022-12-18T08:28:44;101787.56;;;13.05;28.30
19150;BME280;9707;49.158;8.632;2022-12-18T08:31:10;101783.94;;;13.08;28.66
19150;BME280;9707;49.158;8.632;2022-12-18T08:33:36;101788.34;;;13.09;28.13
19150;BME280;9707;49.158;8.632;2022-12-18T08:36:03;101794.56;;;13.11;29.12
19150;BME280;9707;49.158;8.632;2022-12-18T08:38:29;101783.75;;;13.14;28.71
19150;BME280;9707;49.158;8.632;2022-12-18T08:41:01;101775.66;;;13.17;29.57
19150;BME280;9707;49.158;8.632;2022-12-18T08:43:26;101763.09;;;13.19;30.00
19150;BME280;9707;49.158;8.632;2022-12-18T08:46:11;101762.09;;;13.23;29.98
19150;BME280;9707;49.158;8.632;2022-12-18T08:48:37;101758.44;;;13.27;30.01
19150;BME280;9707;49.158;8.632;2022-12-18T08:51:02;101762.75;;;13.31;29.97
19150;BME280;9707;49.158;8.632;2022-12-18T08:53:28;101756.44;;;13.33;30.90
19150;BME280;9707;49.158;8.632;2022-12-18T08:55:53;101756.38;;;13.35;30.82
19150;BME280;9707;49.158;8.632;2022-12-18T08:58:19;101746.41;;;13.41;31.28
19150;BME280;9707;49.158;8.632;2022-12-18T09:00:44;101742.72;;;13.45;31.42
19150;BME280;9707;49.158;8.632;2022-12-18T09:03:12;101731.84;;;13.50;31.36
19150;BME280;9707;49.158;8.632;2022-12-18T09:05:37;101730.84;;;13.54;32.16
19150;BME280;9707;49.158;8.632;2022-12-18T09:08:02;101738.72;;;13.58;31.79
19150;BME280;9707;49.158;8.632;2022-12-18T09:10:27;101742.16;;;13.63;32.13
19150;BME280;9707;49.158;8.632;2022-12-18T09:12:53;101734.94;;;13.67;32.05
19150;BME280;9707;49.158;8.632;2022-12-18T09:15:18;101731.28;;;13.69;31.74
19150;BME280;9707;49.158;8.632;2022-12-18T09:17:43;101742.78;;;13.73;32.41
19150;BME280;9707;49.158;8.632;2022-12-18T09:20:09;101734.59;;;13.77;32.51
19150;BME280;9707;49.158;8.632;2022-12-18T09:22:34;101732.69;;;13.81;32.30
19150;BME280;9707;49.158;8.632;2022-12-18T09:25:00;101735.28;;;13.84;32.60
19150;BME280;9707;49.158;8.632;2022-12-18T09:27:25;101735.19;;;13.87;33.15
19150;BME280;9707;49.158;8.632;2022-12-18T09:29:50;101734.16;;;13.91;32.17
19150;BME280;9707;49.158;8.632;2022-12-18T09:32:15;101745.59;;;13.96;32.52
19150;BME280;9707;49.158;8.632;2022-12-18T09:34:41;101755.38;;;13.97;32.52
19150;BME280;9707;49.158;8.632;2022-12-18T09:37:06;101765.13;;;13.99;32.78
19150;BME280;9707;49.158;8.632;2022-12-18T09:39:31;101760.66;;;14.00;32.69
19150;BME280;9707;49.158;8.632;2022-12-18T09:41:58;101755.25;;;14.01;33.20
19150;BME280;9707;49.158;8.632;2022-12-18T09:44:29;101758.75;;;14.03;32.45
19150;BME280;9707;49.158;8.632;2022-12-18T09:49:45;101784.50;;;14.09;32.92
19150;BME280;9707;49.158;8.632;2022-12-18T09:52:27;101792.50;;;14.10;31.97
19150;BME280;9707;49.158;8.632;2022-12-18T09:58:31;101808.56;;;14.10;33.04
19150;BME280;9707;49.158;8.632;2022-12-18T10:00:59;101798.72;;;14.11;33.13
19150;BME280;9707;49.158;8.632;2022-12-18T10:03:24;101796.88;;;14.13;33.02
19150;BME280;9707;49.158;8.632;2022-12-18T10:08:44;101792.34;;;14.15;30.36
19150;BME280;9707;49.158;8.632;2022-12-18T10:13:49;101785.19;;;14.15;33.36
19150;BME280;9707;49.158;8.632;2022-12-18T10:19:42;101786.72;;;14.24;33.15
19150;BME280;9707;49.158;8.632;2022-12-18T10:22:34;101777.72;;;14.26;33.51
19150;BME280;9707;49.158;8.632;2022-12-18T10:24:49;101783.84;;;14.30;32.71
19150;BME280;9707;49.158;8.632;2022-12-18T10:27:22;101776.63;;;14.32;32.62
19150;BME280;9707;49.158;8.632;2022-12-18T10:29:48;101773.91;;;14.33;32.56
19150;BME280;9707;49.158;8.632;2022-12-18T10:32:20;101789.13;;;14.33;32.00
19150;BME280;9707;49.158;8.632;2022-12-18T10:34:54;101780.16;;;14.34;32.78
19150;BME280;9707;49.158;8.632;2022-12-18T10:37:21;101766.72;;;14.35;33.98
19150;BME280;9707;49.158;8.632;2022-12-18T10:40:08;101768.41;;;14.38;33.09
19150;BME280;9707;49.158;8.632;2022-12-18T10:42:34;101770.13;;;14.40;33.24
19150;BME280;9707;49.158;8.632;2022-12-18T10:45:26;101762.88;;;14.42;32.72
19150;BME280;9707;49.158;8.632;2022-12-18T10:47:51;101752.94;;;14.46;33.54
19150;BME280;9707;49.158;8.632;2022-12-18T10:50:35;101749.28;;;14.48;33.29
19150;BME280;9707;49.158;8.632;2022-12-18T10:53:03;101750.97;;;14.51;32.63
19150;BME280;9707;49.158;8.632;2022-12-18T10:55:38;101746.50;;;14.51;32.26
19150;BME280;9707;49.158;8.632;2022-12-18T10:58:28;101749.13;;;14.53;32.87
19150;BME280;9707;49.158;8.632;2022-12-18T11:01:11;101741.94;;;14.53;32.33
19150;BME280;9707;49.158;8.632;2022-12-18T11:03:38;101752.63;;;14.55;33.35
19150;BME280;9707;49.158;8.632;2022-12-18T11:06:12;101754.38;;;14.56;33.53
19150;BME280;9707;49.158;8.632;2022-12-18T11:08:39;101758.75;;;14.58;33.21
19150;BME280;9707;49.158;8.632;2022-12-18T11:11:15;101752.41;;;14.61;33.09
19150;BME280;9707;49.158;8.632;2022-12-18T11:14:12;101759.53;;;14.62;32.90
19150;BME280;9707;49.158;8.632;2022-12-18T11:16:44;101757.75;;;14.62;32.00
19150;BME280;9707;49.158;8.632;2022-12-18T11:21:53;101764.91;;;14.62;32.90
19150;BME280;9707;49.158;8.632;2022-12-18T11:24:28;101767.66;;;14.60;31.51
19150;BME280;9707;49.158;8.632;2022-12-18T11:26:56;101755.09;;;14.61;32.14
19150;BME280;9707;49.158;8.632;2022-12-18T11:29:27;101746.19;;;14.60;32.46
19150;BME280;9707;49.158;8.632;2022-12-18T11:32:19;101747.06;;;14.61;32.98
19150;BME280;9707;49.158;8.632;2022-12-18T11:34:49;101755.94;;;14.63;33.36
19150;BME280;9707;49.158;8.632;2022-12-18T11:37:17;101747.78;;;14.66;33.37
19150;BME280;9707;49.158;8.632;2022-12-18T11:39:54;101746.84;;;14.67;31.64
19150;BME280;9707;49.158;8.632;2022-12-18T11:42:37;101750.47;;;14.66;31.52
19150;BME280;9707;49.158;8.632;2022-12-18T11:50:31;101737.28;;;14.60;30.30
19150;BME280;9707;49.158;8.632;2022-12-18T11:52:57;101745.31;;;14.60;30.88
19150;BME280;9707;49.158;8.632;2022-12-18T11:55:31;101729.22;;;14.60;32.00
19150;BME280;9707;49.158;8.632;2022-12-18T11:58:11;101723.78;;;14.63;31.90
19150;BME280;9707;49.158;8.632;2022-12-18T12:00:49;101725.50;;;14.64;31.59
19150;BME280;9707;49.158;8.632;2022-12-18T12:06:21;101714.78;;;14.64;30.83
19150;BME280;9707;49.158;8.632;2022-12-18T12:09:17;101700.44;;;14.65;32.46
19150;BME280;9707;49.158;8.632;2022-12-18T12:15:03;101700.28;;;14.69;31.40
19150;BME280;9707;49.158;8.632;2022-12-18T12:17:45;101709.25;;;14.68;30.20
19150;BME280;9707;49.158;8.632;2022-12-18T12:20:20;101718.28;;;14.66;30.54
19150;BME280;9707;49.158;8.632;2022-12-18T12:22:57;101720.03;;;14.67;31.62
19150;BME280;9707;49.158;8.632;2022-12-18T12:34:04;101700.44;;;14.65;32.11
19150;BME280;9707;49.158;8.632;2022-12-18T12:36:40;101702.09;;;14.69;31.78
19150;BME280;9707;49.158;8.632;2022-12-18T12:39:15;101694.09;;;14.67;30.44
19150;BME280;9707;49.158;8.632;2022-12-18T12:41:45;101705.69;;;14.68;31.23
19150;BME280;9707;49.158;8.632;2022-12-18T12:44:38;101695.84;;;14.68;31.21
19150;BME280;9707;49.158;8.632;2022-12-18T12:47:32;101702.00;;;14.70;30.33
19150;BME280;9707;49.158;8.632;2022-12-18T12:50:01;101702.94;;;14.69;30.51
19150;BME280;9707;49.158;8.632;2022-12-18T12:52:32;101698.47;;;14.70;30.30
19150;BME280;9707;49.158;8.632;2022-12-18T12:55:00;101706.53;;;14.70;30.09
19150;BME280;9707;49.158;8.632;2022-12-18T12:57:34;101703.94;;;14.67;28.82
19150;BME280;9707;49.158;8.632;2022-12-18T13:00:06;101693.22;;;14.67;31.75
19150;BME280;9707;49.158;8.632;2022-12-18T13:02:39;101687.75;;;14.70;32.27
19150;BME280;9707;49.158;8.632;2022-12-18T13:08:09;101684.13;;;14.71;30.47
19150;BME280;9707;49.158;8.632;2022-12-18T13:10:39;101673.41;;;14.71;31.28
19150;BME280;9707;49.158;8.632;2022-12-18T13:13:15;101672.47;;;14.72;30.79
19150;BME280;9707;49.158;8.632;2022-12-18T13:18:16;101657.13;;;14.75;31.88
19150;BME280;9707;49.158;8.632;2022-12-18T13:20:45;101653.47;;;14.78;31.93
19150;BME280;9707;49.158;8.632;2022-12-18T13:23:26;101658.63;;;14.84;31.39
19150;BME280;9707;49.158;8.632;2022-12-18T13:38:40;101628.44;;;15.02;32.78
19150;BME280;9707;49.158;8.632;2022-12-18T13:43:54;101624.75;;;15.04;31.61
19150;BME280;9707;49.158;8.632;2022-12-18T13:49:17;101621.22;;;15.04;32.79
19150;BME280;9707;49.158;8.632;2022-12-18T13:51:48;101628.19;;;15.08;32.89
19150;BME280;9707;49.158;8.632;2022-12-18T13:54:27;101630.03;;;15.07;32.36
19150;BME280;9707;49.158;8.632;2022-12-18T13:56:54;101639.81;;;15.08;32.33
19150;BME280;9707;49.158;8.632;2022-12-18T13:59:24;101630.03;;;15.07;31.39
19150;BME280;9707;49.158;8.632;2022-12-18T14:01:55;101630.88;;;15.08;31.99
19150;BME280;9707;49.158;8.632;2022-12-18T14:04:29;101626.44;;;15.07;30.91
19150;BME280;9707;49.158;8.632;2022-12-18T14:07:03;101629.13;;;15.07;31.98
19150;BME280;9707;49.158;8.632;2022-12-18T14:09:31;101635.44;;;15.06;31.27
19150;BME280;9707;49.158;8.632;2022-12-18T14:11:59;101636.38;;;15.05;32.04
19150;BME280;9707;49.158;8.632;2022-12-18T14:14:45;101639.06;;;15.05;31.47
19150;BME280;9707;49.158;8.632;2022-12-18T14:17:13;101643.59;;;15.03;31.09
19150;BME280;9707;49.158;8.632;2022-12-18T14:19:49;101640.03;;;15.02;31.40
19150;BME280;9707;49.158;8.632;2022-12-18T14:22:21;101635.66;;;15.00;30.42
19150;BME280;9707;49.158;8.632;2022-12-18T14:24:47;101634.84;;;14.98;30.65
19150;BME280;9707;49.158;8.632;2022-12-18T14:27:29;101635.81;;;14.95;30.30
19150;BME280;9707;49.158;8.632;2022-12-18T14:29:55;101629.69;;;14.92;30.53
19150;BME280;9707;49.158;8.632;2022-12-18T14:32:20;101632.34;;;14.93;30.48
19150;BME280;9707;49.158;8.632;2022-12-18T14:34:51;101627.94;;;14.91;30.38